Time;durP1;ratioP1;P1;durP2;ratioP2;P2;SDS_P1;SDS_P2;PMS_P1;PMS_P2;Temp;Humidity;BMP_temperature;BMP_pressure;BME280_temperature;BME280_humidity;BME280_pressure;Samples;Min_cycle;Max_cycle;Signal;HPM_P1;HPM_P2
2022/08/15 00:01:36;;;;;;;7.72;6.75;;;;;;;25.12;49.69;100187.88;5240603;28;20059;-70
2022/08/15 00:04:08;;;;;;;10.07;7.35;;;;;;;24.85;50.74;100188.66;5240156;28;20502;-71
2022/08/15 00:06:45;;;;;;;10.02;7.43;;;;;;;24.92;50.56;100179.81;5240315;28;20013;-70
2022/08/15 00:09:20;;;;;;;8.90;6.63;;;;;;;24.99;50.32;100184.16;5249864;28;20036;-70
2022/08/15 00:11:56;;;;;;;10.15;6.50;;;;;;;25.10;50.17;100189.94;5254097;28;20033;-70
2022/08/15 00:14:34;;;;;;;8.40;6.78;;;;;;;24.97;50.85;100185.38;5252626;28;20021;-70
2022/08/15 00:17:09;;;;;;;8.70;6.78;;;;;;;24.69;52.24;100183.66;5252914;28;21505;-70
2022/08/15 00:19:44;;;;;;;7.85;6.75;;;;;;;24.78;51.71;100198.50;5251785;28;20029;-71
2022/08/15 00:22:19;;;;;;;7.45;6.60;;;;;;;24.58;52.28;100204.63;5253249;28;20024;-71
2022/08/15 00:24:50;;;;;;;7.72;6.82;;;;;;;24.61;51.84;100182.81;5254053;28;20028;-70
2022/08/15 00:27:24;;;;;;;12.20;7.30;;;;;;;24.56;52.26;100192.50;5253820;28;20031;-70
2022/08/15 00:29:55;;;;;;;8.13;6.63;;;;;;;24.68;51.62;100190.03;5253450;28;20028;-70
2022/08/15 00:32:27;;;;;;;7.70;6.90;;;;;;;24.75;51.53;100202.41;5253489;28;20456;-71
2022/08/15 00:34:59;;;;;;;10.55;7.25;;;;;;;24.72;51.36;100192.09;5253826;28;20021;-71
2022/08/15 00:37:30;;;;;;;11.65;7.57;;;;;;;24.60;51.91;100193.72;5252220;28;20366;-70
2022/08/15 00:40:02;;;;;;;9.88;7.40;;;;;;;24.59;52.13;100189.41;5253033;28;20078;-71
2022/08/15 00:42:34;;;;;;;9.35;7.43;;;;;;;24.44;52.41;100182.34;5253003;28;20451;-70
2022/08/15 00:45:05;;;;;;;10.23;8.00;;;;;;;24.58;50.59;100179.72;5253698;28;20043;-71
2022/08/15 00:47:37;;;;;;;15.70;7.50;;;;;;;24.64;49.18;100186.94;5244258;28;20075;-71
2022/08/15 00:50:13;;;;;;;12.52;7.68;;;;;;;24.80;47.97;100190.28;5234245;28;20026;-71
2022/08/15 00:52:45;;;;;;;12.80;7.10;;;;;;;24.67;47.35;100183.03;5233980;28;20486;-71
2022/08/15 00:55:17;;;;;;;8.25;6.35;;;;;;;24.56;47.32;100185.25;5234012;28;20101;-71
2022/08/15 00:57:48;;;;;;;9.52;6.45;;;;;;;24.66;46.49;100187.56;5233619;28;20061;-71
2022/08/15 01:00:27;;;;;;;6.55;5.55;;;;;;;24.73;45.87;100192.94;5235549;28;20036;-71
2022/08/15 01:03:00;;;;;;;8.40;5.40;;;;;;;24.68;45.21;100188.19;5237599;28;20470;-71
2022/08/15 01:05:31;;;;;;;9.65;5.00;;;;;;;24.57;44.39;100189.59;5253880;28;20049;-70
2022/08/15 01:08:03;;;;;;;11.13;4.15;;;;;;;24.69;44.44;100192.53;5254783;28;20037;-71
2022/08/15 01:10:34;;;;;;;6.65;4.13;;;;;;;24.50;44.66;100191.44;5254210;28;20029;-71
2022/08/15 01:13:06;;;;;;;11.75;4.22;;;;;;;24.60;43.29;100188.38;5253293;28;20021;-71
2022/08/15 01:15:37;;;;;;;6.63;3.85;;;;;;;24.56;43.40;100179.91;5254031;28;20017;-70
2022/08/15 01:18:09;;;;;;;9.32;3.90;;;;;;;24.55;42.80;100180.13;5254041;28;20094;-70
2022/08/15 01:20:43;;;;;;;7.65;3.42;;;;;;;24.51;42.57;100185.03;5254340;28;20029;-70
2022/08/15 01:23:58;;;;;;;4.35;2.65;;;;;;;24.61;42.99;100190.84;5251570;28;20098;-71
2022/08/15 01:26:30;;;;;;;5.50;3.33;;;;;;;24.56;42.38;100197.84;5246428;28;20047;-70
2022/08/15 01:29:02;;;;;;;5.78;3.30;;;;;;;24.46;42.91;100184.81;5253037;28;20595;-71
2022/08/15 01:31:34;;;;;;;5.32;2.90;;;;;;;24.40;42.79;100173.91;5252249;28;20025;-70
2022/08/15 01:34:05;;;;;;;6.00;3.20;;;;;;;24.41;42.83;100186.25;5253946;28;20017;-70
2022/08/15 01:36:37;;;;;;;11.18;3.15;;;;;;;24.38;42.49;100183.97;5254070;28;20035;-71
2022/08/15 01:39:22;;;;;;;5.90;2.97;;;;;;;24.44;42.15;100186.88;5253868;28;20171;-70
2022/08/15 01:42:01;;;;;;;8.55;2.88;;;;;;;24.33;42.52;100174.91;5253710;28;20029;-71
2022/08/15 01:44:36;;;;;;;9.18;2.97;;;;;;;24.12;42.76;100168.63;5251345;28;20381;-70
2022/08/15 01:47:36;;;;;;;3.38;2.63;;;;;;;24.30;42.39;100197.53;5252161;28;20271;-70
2022/08/15 01:50:15;;;;;;;7.47;2.72;;;;;;;24.12;42.43;100196.19;5252094;28;20393;-71
2022/08/15 01:52:53;;;;;;;5.32;2.70;;;;;;;24.01;42.30;100196.75;5253693;28;20027;-71
2022/08/15 01:55:31;;;;;;;4.85;2.85;;;;;;;23.95;42.86;100195.69;5251725;28;20039;-70
2022/08/15 01:58:05;;;;;;;12.73;2.70;;;;;;;23.87;43.13;100193.16;5252700;28;20028;-70
2022/08/15 02:00:37;;;;;;;3.83;2.60;;;;;;;23.90;42.97;100193.59;5253021;28;20087;-70
2022/08/15 02:03:09;;;;;;;7.20;2.42;;;;;;;23.83;42.97;100190.06;5252235;28;20112;-70
2022/08/15 02:05:40;;;;;;;6.57;2.53;;;;;;;23.88;42.63;100192.97;5253318;28;20056;-70
2022/08/15 02:08:12;;;;;;;9.43;2.58;;;;;;;23.87;42.55;100194.00;5251861;28;20029;-70
2022/08/15 02:10:44;;;;;;;3.60;2.72;;;;;;;23.77;42.73;100194.34;5252784;28;20033;-70
2022/08/15 02:13:16;;;;;;;7.55;2.60;;;;;;;23.77;42.89;100190.84;5251833;28;20055;-70
2022/08/15 02:15:48;;;;;;;4.80;2.20;;;;;;;23.63;43.23;100187.28;5253407;28;20115;-71
2022/08/15 02:18:20;;;;;;;10.55;2.70;;;;;;;23.56;43.50;100188.03;5253025;28;20123;-70
2022/08/15 02:20:51;;;;;;;4.82;2.63;;;;;;;23.52;43.49;100191.28;5252787;28;20490;-71
2022/08/15 02:23:24;;;;;;;6.60;2.92;;;;;;;23.50;43.23;100185.31;5252877;28;20705;-71
2022/08/15 02:25:55;;;;;;;4.43;2.67;;;;;;;23.49;43.39;100181.84;5253297;28;20021;-70
2022/08/15 02:28:27;;;;;;;8.73;2.45;;;;;;;23.48;43.36;100179.34;5251439;28;20075;-70
2022/08/15 02:30:58;;;;;;;7.10;2.60;;;;;;;23.43;43.49;100182.59;5253158;28;20116;-70
2022/08/15 02:33:29;;;;;;;8.27;2.75;;;;;;;23.42;43.19;100176.41;5251357;28;20060;-71
2022/08/15 02:36:00;;;;;;;5.45;2.88;;;;;;;23.33;43.87;100182.91;5252469;28;20090;-70
2022/08/15 02:38:32;;;;;;;7.13;2.58;;;;;;;23.38;43.88;100180.47;5252567;28;20032;-71
2022/08/15 02:41:04;;;;;;;4.15;2.53;;;;;;;23.30;44.14;100189.44;5252313;28;20409;-70
2022/08/15 02:43:42;;;;;;;13.75;3.20;;;;;;;23.35;43.75;100193.41;5251611;28;20029;-71
2022/08/15 02:46:16;;;;;;;5.43;2.72;;;;;;;23.28;43.46;100191.50;5252430;28;20052;-71
2022/08/15 02:48:48;;;;;;;6.88;3.03;;;;;;;23.35;43.23;100204.91;5252975;28;20013;-70
2022/08/15 02:51:21;;;;;;;8.80;3.25;;;;;;;23.13;44.05;100199.56;5252675;28;20025;-70
2022/08/15 02:53:54;;;;;;;8.50;3.00;;;;;;;23.24;43.93;100200.09;5267864;28;20029;-70
2022/08/15 02:56:27;;;;;;;5.60;3.28;;;;;;;22.91;45.26;100182.75;5252582;28;20104;-70
2022/08/15 02:58:59;;;;;;;4.83;2.87;;;;;;;23.02;45.41;100197.44;5251539;28;20052;-70
2022/08/15 03:01:37;;;;;;;4.20;2.70;;;;;;;23.06;44.68;100193.34;5252112;28;20021;-70
2022/08/15 03:04:14;;;;;;;8.43;2.83;;;;;;;22.98;44.90;100196.97;5252434;28;20025;-70
2022/08/15 03:06:47;;;;;;;4.05;2.60;;;;;;;23.04;44.87;100193.53;5250971;28;20020;-70
2022/08/15 03:09:19;;;;;;;5.13;2.50;;;;;;;23.03;44.76;100201.75;5252433;28;20025;-70
2022/08/15 03:11:50;;;;;;;6.53;3.03;;;;;;;23.07;44.48;100200.34;5252081;28;20024;-69
2022/08/15 03:14:22;;;;;;;5.32;2.70;;;;;;;22.99;44.52;100208.50;5255202;28;20017;-70
2022/08/15 03:16:53;;;;;;;7.88;2.65;;;;;;;22.95;44.69;100203.50;5253046;28;20025;-70
2022/08/15 03:19:25;;;;;;;10.52;2.80;;;;;;;22.85;44.92;100205.66;5250546;28;20131;-71
2022/08/15 03:21:56;;;;;;;6.53;3.03;;;;;;;22.85;45.43;100200.34;5251223;28;20497;-70
2022/08/15 03:24:27;;;;;;;5.03;2.70;;;;;;;22.80;45.21;100195.56;5252111;28;20032;-71
2022/08/15 03:26:59;;;;;;;4.65;2.70;;;;;;;22.76;45.28;100183.59;5252265;28;20078;-70
2022/08/15 03:29:30;;;;;;;6.70;3.20;;;;;;;22.85;45.05;100189.66;5251472;28;20036;-70
2022/08/15 03:32:10;;;;;;;8.05;3.03;;;;;;;22.76;45.14;100180.13;5250652;28;20047;-70
2022/08/15 03:34:41;;;;;;;5.25;3.20;;;;;;;22.75;45.30;100200.66;5252037;28;20112;-70
2022/08/15 03:37:13;;;;;;;10.13;3.05;;;;;;;22.64;45.73;100193.94;5252136;28;20121;-70
2022/08/15 03:39:44;;;;;;;5.82;3.13;;;;;;;22.68;45.78;100195.25;5251924;28;20029;-71
2022/08/15 03:42:16;;;;;;;8.82;3.03;;;;;;;22.64;45.85;100190.47;5251108;28;20029;-71
2022/08/15 03:44:48;;;;;;;6.90;3.42;;;;;;;22.63;46.19;100194.16;5252394;28;20036;-71
2022/08/15 03:47:21;;;;;;;11.13;3.28;;;;;;;22.59;46.13;100201.66;5237645;28;20390;-70
2022/08/15 03:49:52;;;;;;;5.72;3.47;;;;;;;22.54;46.56;100204.06;5235412;28;20022;-71
2022/08/15 03:52:24;;;;;;;4.97;2.90;;;;;;;22.44;47.10;100201.72;5234624;28;20059;-70
2022/08/15 03:55:00;;;;;;;8.60;3.55;;;;;;;22.50;46.76;100210.81;5235279;28;20033;-70
2022/08/15 03:57:31;;;;;;;11.30;3.65;;;;;;;22.39;46.99;100204.94;5253712;28;20064;-70
2022/08/15 04:00:07;;;;;;;11.10;3.35;;;;;;;22.37;47.19;100209.63;5254830;28;20060;-70
2022/08/15 04:02:38;;;;;;;6.87;3.40;;;;;;;22.33;47.87;100211.00;5255855;28;20040;-70
2022/08/15 04:05:11;;;;;;;9.02;4.07;;;;;;;22.24;48.25;100208.44;5236214;28;20038;-71
2022/08/15 04:07:42;;;;;;;8.33;3.47;;;;;;;22.19;48.38;100205.50;5234753;28;20029;-70
2022/08/15 04:10:16;;;;;;;8.07;4.07;;;;;;;22.16;48.83;100184.53;5234063;28;20040;-71
2022/08/15 04:12:48;;;;;;;7.65;4.03;;;;;;;22.15;49.16;100198.88;5234283;28;20029;-70
2022/08/15 04:15:19;;;;;;;12.00;4.10;;;;;;;22.19;49.20;100205.50;5234804;28;20032;-70
2022/08/15 04:17:52;;;;;;;9.10;3.22;;;;;;;22.23;49.60;100196.13;5234529;28;20061;-70
2022/08/15 04:20:24;;;;;;;7.70;3.47;;;;;;;22.24;49.62;100211.13;5233459;28;20029;-70
2022/08/15 04:22:55;;;;;;;7.13;3.20;;;;;;;22.20;49.91;100201.00;5234663;28;20080;-70
2022/08/15 04:25:30;;;;;;;10.63;3.30;;;;;;;22.16;50.43;100208.53;5233206;28;20030;-70
2022/08/15 04:28:03;;;;;;;6.70;3.53;;;;;;;22.14;50.76;100215.06;5234040;28;20070;-70
2022/08/15 04:30:39;;;;;;;9.33;3.23;;;;;;;22.12;51.01;100205.41;5234081;28;20059;-70
2022/08/15 04:33:13;;;;;;;9.27;4.37;;;;;;;22.18;51.29;100209.19;5234505;28;20078;-70
2022/08/15 04:35:48;;;;;;;11.20;3.90;;;;;;;22.15;51.48;100211.41;5234317;28;20037;-70
2022/08/15 04:38:20;;;;;;;5.00;3.25;;;;;;;22.18;51.59;100208.34;5232997;28;20117;-70
2022/08/15 04:40:54;;;;;;;6.93;3.47;;;;;;;22.06;52.78;100214.13;5234597;28;20034;-71
2022/08/15 04:43:25;;;;;;;8.23;3.75;;;;;;;22.10;52.51;100206.59;5237072;28;20116;-70
2022/08/15 04:45:57;;;;;;;9.40;3.73;;;;;;;21.94;53.45;100219.09;5234551;28;20136;-70
2022/08/15 04:48:29;;;;;;;9.77;3.70;;;;;;;21.99;53.88;100219.38;5233883;28;20021;-70
2022/08/15 04:51:02;;;;;;;8.13;3.53;;;;;;;22.06;53.81;100210.66;5234489;28;20025;-70
2022/08/15 04:53:35;;;;;;;6.40;4.45;;;;;;;22.10;53.67;100209.25;5240247;28;20548;-70
2022/08/15 04:56:07;;;;;;;8.55;4.07;;;;;;;22.12;54.04;100209.91;5253116;28;20033;-70
2022/08/15 04:58:39;;;;;;;11.03;3.90;;;;;;;21.97;54.10;100196.59;5255000;28;20036;-70
2022/08/15 05:01:12;;;;;;;6.30;3.60;;;;;;;22.17;54.18;100225.34;5257696;28;20031;-70
2022/08/15 05:03:43;;;;;;;8.03;3.43;;;;;;;22.08;54.50;100224.66;5253625;28;20079;-71
2022/08/15 05:06:14;;;;;;;6.32;4.22;;;;;;;22.10;54.74;100233.25;5253296;28;20045;-70
2022/08/15 05:08:46;;;;;;;9.90;4.10;;;;;;;22.02;54.48;100204.03;5254226;28;20021;-70
2022/08/15 05:11:19;;;;;;;9.33;4.23;;;;;;;22.05;54.90;100225.81;5253946;28;20024;-70
2022/08/15 05:13:52;;;;;;;8.33;3.97;;;;;;;22.12;55.00;100212.59;5251153;28;20424;-70
2022/08/15 05:16:23;;;;;;;5.90;4.07;;;;;;;22.10;55.38;100223.44;5254102;28;20521;-70
2022/08/15 05:18:55;;;;;;;7.53;4.17;;;;;;;22.12;55.26;100236.56;5252098;28;20116;-70
2022/08/15 05:21:28;;;;;;;14.33;4.20;;;;;;;21.95;56.14;100234.09;5253512;28;20044;-70
2022/08/15 05:24:00;;;;;;;9.68;4.88;;;;;;;22.02;55.76;100244.84;5251926;28;20499;-70
2022/08/15 05:26:32;;;;;;;12.27;4.10;;;;;;;22.09;55.68;100242.28;5253671;28;20020;-70
2022/08/15 05:29:06;;;;;;;6.90;4.03;;;;;;;22.12;55.97;100253.41;5252927;28;20027;-70
2022/08/15 05:31:37;;;;;;;8.52;4.32;;;;;;;22.10;56.08;100259.94;5252890;28;20545;-70
2022/08/15 05:34:09;;;;;;;10.47;3.60;;;;;;;22.07;56.22;100246.97;5253366;28;20100;-70
2022/08/15 05:36:40;;;;;;;12.23;4.28;;;;;;;22.09;56.58;100247.63;5252584;28;20633;-70
2022/08/15 05:39:22;;;;;;;12.20;4.73;;;;;;;22.02;56.70;100252.03;5252994;28;20037;-70
2022/08/15 05:42:01;;;;;;;11.30;4.50;;;;;;;21.97;57.16;100247.25;5252106;28;20029;-70
2022/08/15 05:44:40;;;;;;;6.25;3.85;;;;;;;21.98;57.56;100252.38;5252977;28;20583;-70
2022/08/15 05:47:23;;;;;;;11.60;4.47;;;;;;;22.06;57.75;100258.66;5252955;28;20021;-70
2022/08/15 05:50:00;;;;;;;8.25;3.92;;;;;;;22.05;57.89;100251.66;5253325;28;20021;-70
2022/08/15 05:52:45;;;;;;;7.68;3.35;;;;;;;22.07;57.47;100254.97;5253050;28;20013;-70
2022/08/15 05:55:21;;;;;;;10.68;4.72;;;;;;;22.05;57.71;100256.97;5252465;28;20104;-70
2022/08/15 05:58:01;;;;;;;8.17;4.30;;;;;;;22.13;57.72;100256.91;5252521;28;20025;-70
2022/08/15 06:00:34;;;;;;;12.80;3.83;;;;;;;22.12;57.82;100255.25;5253372;28;20033;-70
2022/08/15 06:03:15;;;;;;;7.80;3.72;;;;;;;22.19;57.35;100258.84;5253286;28;20094;-70
2022/08/15 06:05:51;;;;;;;4.93;3.30;;;;;;;22.18;57.67;100264.34;5253236;28;20041;-70
2022/08/15 06:08:35;;;;;;;9.30;3.93;;;;;;;22.21;57.10;100264.81;5251354;28;20036;-70
2022/08/15 06:11:15;;;;;;;5.53;3.38;;;;;;;22.21;57.20;100266.66;5253620;28;20037;-71
2022/08/15 06:13:55;;;;;;;8.30;3.42;;;;;;;22.23;57.78;100264.63;5250923;28;20040;-72
2022/08/15 06:16:39;;;;;;;11.80;4.40;;;;;;;22.31;57.50;100272.53;5253321;28;20041;-72
2022/08/15 06:19:30;;;;;;;11.20;3.75;;;;;;;22.35;57.35;100257.00;5252970;28;20029;-71
2022/08/15 06:22:10;;;;;;;10.35;4.47;;;;;;;22.41;57.39;100255.44;5252885;28;20031;-69
2022/08/15 06:24:58;;;;;;;5.95;4.05;;;;;;;22.42;57.94;100262.41;5253198;28;20021;-69
2022/08/15 06:27:46;;;;;;;9.68;4.63;;;;;;;22.45;57.91;100260.22;5249687;28;20036;-69
2022/08/15 06:30:22;;;;;;;9.10;3.95;;;;;;;22.43;58.57;100259.56;5249312;28;20032;-70
2022/08/15 06:33:24;;;;;;;8.85;4.00;;;;;;;22.44;58.15;100271.91;5251693;28;20569;-69
2022/08/15 06:36:15;;;;;;;5.72;3.95;;;;;;;22.46;58.36;100261.84;5251712;28;20025;-69
2022/08/15 06:39:14;;;;;;;8.63;4.80;;;;;;;22.52;57.88;100260.28;5250157;28;20029;-69
2022/08/15 06:41:56;;;;;;;7.60;4.22;;;;;;;22.47;58.37;100252.84;5248740;28;20121;-69
2022/08/15 06:44:28;;;;;;;7.68;3.63;;;;;;;22.48;59.32;100257.16;5249501;28;21018;-69
2022/08/15 06:47:04;;;;;;;9.50;4.15;;;;;;;22.53;59.34;100261.97;5251587;28;20067;-69
2022/08/15 06:49:40;;;;;;;8.70;3.95;;;;;;;22.48;59.50;100265.16;5250246;28;20126;-68
2022/08/15 06:52:15;;;;;;;7.60;3.78;;;;;;;22.45;59.87;100268.22;5246222;28;20505;-70
2022/08/15 06:54:47;;;;;;;8.43;3.70;;;;;;;22.47;59.59;100265.34;5251560;28;20115;-71
2022/08/15 06:57:39;;;;;;;8.68;3.85;;;;;;;22.57;59.49;100273.91;5232958;28;20094;-70
2022/08/15 07:00:21;;;;;;;6.55;3.55;;;;;;;22.54;60.00;100276.94;5246805;28;20709;-69
2022/08/15 07:03:15;;;;;;;8.68;4.75;;;;;;;22.63;59.13;100259.03;5249734;28;20099;-69
2022/08/15 07:05:55;;;;;;;9.48;5.28;;;;;;;22.68;59.57;100267.31;5244933;28;20044;-68
2022/08/15 07:08:37;;;;;;;9.75;5.20;;;;;;;22.79;59.50;100262.50;5249955;28;20870;-69
2022/08/15 07:11:20;;;;;;;8.20;4.15;;;;;;;22.82;59.35;100254.94;5245770;28;20025;-69
2022/08/15 07:14:06;;;;;;;12.65;4.80;;;;;;;22.98;58.77;100257.56;5246690;28;20090;-68
2022/08/15 07:17:07;;;;;;;8.27;3.90;;;;;;;23.03;59.34;100263.16;5246894;28;20704;-68
2022/08/15 07:19:38;;;;;;;12.32;4.93;;;;;;;23.07;59.15;100264.44;5247829;28;20684;-69
2022/08/15 07:22:11;;;;;;;7.65;5.10;;;;;;;23.11;58.94;100260.34;5253920;28;20025;-70
2022/08/15 07:24:54;;;;;;;8.23;4.78;;;;;;;23.13;59.17;100262.84;5253298;28;20025;-70
2022/08/15 07:27:32;;;;;;;9.40;4.60;;;;;;;23.29;58.60;100267.13;5247729;28;20063;-71
2022/08/15 07:30:20;;;;;;;8.85;4.47;;;;;;;23.46;57.87;100261.56;5254705;28;20044;-71
2022/08/15 07:32:55;;;;;;;7.25;4.53;;;;;;;23.49;58.44;100255.81;5254380;28;20037;-71
2022/08/15 07:35:33;;;;;;;10.30;4.65;;;;;;;23.56;58.43;100252.16;5254884;28;20032;-71
2022/08/15 07:38:07;;;;;;;12.57;4.93;;;;;;;23.52;58.90;100250.91;5252947;28;20028;-71
2022/08/15 07:40:40;;;;;;;;;;;;;;;23.87;57.01;100258.19;5243690;28;20024;-71
2022/08/15 07:43:28;;;;;;;9.65;5.45;;;;;;;23.80;57.57;100257.28;5253754;28;19921;-70
2022/08/15 07:46:20;;;;;;;9.52;5.20;;;;;;;23.91;57.43;100259.41;5246921;28;20529;-71
2022/08/15 07:49:02;;;;;;;9.35;5.15;;;;;;;24.00;57.00;100264.63;5255715;28;20112;-69
2022/08/15 07:51:42;;;;;;;14.57;5.22;;;;;;;24.08;56.79;100264.47;5255041;28;20322;-71
2022/08/15 07:54:24;;;;;;;12.20;5.18;;;;;;;24.15;56.99;100269.88;5245112;28;20092;-71
2022/08/15 07:56:59;;;;;;;8.90;5.47;;;;;;;24.20;56.42;100270.13;5242281;28;20060;-72
2022/08/15 07:59:33;;;;;;;12.55;6.07;;;;;;;24.21;56.29;100270.97;5251562;28;20060;-71
2022/08/15 08:02:29;;;;;;;20.27;6.28;;;;;;;24.36;55.85;100269.00;5251931;28;20120;-71
2022/08/15 08:05:02;;;;;;;15.05;5.50;;;;;;;24.14;56.08;100261.00;5250353;28;20045;-71
2022/08/15 08:07:42;;;;;;;15.50;5.53;;;;;;;24.31;56.23;100257.22;5252597;28;20283;-72
2022/08/15 08:10:35;;;;;;;11.02;4.93;;;;;;;24.50;55.34;100277.06;5252739;28;20035;-71
2022/08/15 08:13:22;;;;;;;9.80;5.00;;;;;;;24.57;55.38;100280.63;5253691;28;20041;-73
2022/08/15 08:16:40;;;;;;;12.25;5.32;;;;;;;24.68;54.67;100278.38;5248196;28;20057;-72
2022/08/15 08:19:37;;;;;;;9.70;4.60;;;;;;;24.72;54.69;100279.63;5242398;28;20530;-70
2022/08/15 08:22:18;;;;;;;11.05;4.80;;;;;;;24.61;54.72;100281.03;5244189;28;20026;-71
2022/08/15 08:25:23;;;;;;;11.02;5.35;;;;;;;24.59;54.75;100286.59;5243589;28;20017;-71
2022/08/15 08:28:13;;;;;;;18.20;5.18;;;;;;;24.37;55.62;100286.69;5246379;28;20519;-71
2022/08/15 08:30:55;;;;;;;15.48;4.80;;;;;;;24.41;55.36;100290.63;5248954;28;20045;-71
2022/08/15 08:34:05;;;;;;;9.55;4.88;;;;;;;24.43;55.21;100286.91;5253119;28;20025;-71
2022/08/15 08:37:17;;;;;;;8.27;4.57;;;;;;;24.28;55.80;100286.03;5246180;28;20040;-72
2022/08/15 08:41:24;;;;;;;9.80;5.45;;;;;;;24.19;55.87;100284.53;5187692;28;20034;-70
2022/08/15 08:43:21;;;;;;;9.10;4.80;;;;;;;24.27;56.10;100288.88;5244226;28;20048;-71
2022/08/15 08:46:23;;;;;;;13.25;5.10;;;;;;;24.25;55.96;100297.13;5247923;28;20503;-70
2022/08/15 08:49:07;;;;;;;11.45;4.93;;;;;;;24.02;56.91;100282.13;5252791;28;20037;-70
2022/08/15 08:52:11;;;;;;;9.27;4.53;;;;;;;24.11;56.28;100282.81;5251143;28;20021;-72
2022/08/15 08:55:06;;;;;;;10.40;4.93;;;;;;;24.05;56.75;100284.41;5252963;28;20029;-71
2022/08/15 08:57:43;;;;;;;15.40;5.15;;;;;;;23.98;57.79;100285.41;5247302;28;20451;-70
2022/08/15 09:00:18;;;;;;;17.58;5.57;;;;;;;23.93;57.72;100292.13;5252606;28;20037;-71
2022/08/15 09:02:59;;;;;;;17.15;6.18;;;;;;;24.00;57.57;100288.72;5253394;28;20484;-70
2022/08/15 09:05:49;;;;;;;23.45;6.75;;;;;;;23.98;57.75;100298.75;5252709;28;20045;-71
2022/08/15 09:08:41;;;;;;;16.65;5.65;;;;;;;23.95;58.47;100307.19;5246655;28;20045;-70
2022/08/15 09:11:23;;;;;;;11.63;4.72;;;;;;;23.98;57.97;100307.59;5250427;28;20078;-69
2022/08/15 09:13:57;;;;;;;10.65;5.75;;;;;;;23.97;58.07;100310.47;5247596;28;20059;-70
2022/08/15 09:16:33;;;;;;;9.90;5.18;;;;;;;23.98;58.14;100314.81;5246915;28;20025;-71
2022/08/15 09:19:26;;;;;;;8.43;5.07;;;;;;;24.10;57.49;100310.59;5251267;28;20362;-70
2022/08/15 09:21:57;;;;;;;8.65;5.65;;;;;;;24.06;58.03;100314.66;5271397;28;20437;-71
2022/08/15 09:24:29;;;;;;;9.50;5.30;;;;;;;24.08;57.92;100317.97;5250160;28;20032;-71
2022/08/15 09:27:12;;;;;;;8.82;5.63;;;;;;;24.14;57.52;100308.34;5247578;28;20047;-70
2022/08/15 09:29:50;;;;;;;9.50;6.00;;;;;;;24.11;57.97;100301.53;5248330;28;20104;-71
2022/08/15 09:32:27;;;;;;;7.63;5.25;;;;;;;24.15;58.16;100313.50;5248142;28;20283;-70
2022/08/15 09:35:08;;;;;;;10.07;4.82;;;;;;;24.18;58.21;100306.94;5252323;28;20025;-70
2022/08/15 09:37:53;;;;;;;11.75;6.28;;;;;;;24.22;58.06;100310.06;5248173;28;20183;-70
2022/08/15 09:40:56;;;;;;;8.88;5.82;;;;;;;24.27;57.89;100299.59;5251563;28;20025;-71
2022/08/15 09:43:46;;;;;;;10.18;6.43;;;;;;;24.40;57.98;100307.69;5247858;28;20123;-70
2022/08/15 09:47:02;;;;;;;9.00;5.53;;;;;;;24.48;57.60;100311.22;5248433;28;20477;-70
2022/08/15 09:49:57;;;;;;;9.75;6.25;;;;;;;24.50;57.28;100306.53;5227592;28;20059;-70
2022/08/15 09:52:47;;;;;;;8.02;5.97;;;;;;;24.60;57.45;100303.47;5250870;28;20377;-70
2022/08/15 09:55:22;;;;;;;10.30;5.82;;;;;;;24.69;57.52;100296.09;5250981;28;20037;-70
2022/08/15 09:57:56;;;;;;;11.75;5.85;;;;;;;24.75;57.30;100312.19;5247585;28;20105;-70
2022/08/15 10:00:36;;;;;;;9.32;5.68;;;;;;;24.79;56.96;100301.91;5251731;28;20033;-69
2022/08/15 10:03:23;;;;;;;11.75;5.90;;;;;;;24.91;56.59;100304.03;5252179;28;20052;-70
2022/08/15 10:06:08;;;;;;;14.88;5.22;;;;;;;24.91;56.78;100314.72;5246276;28;20049;-70
2022/08/15 10:09:09;;;;;;;9.23;5.43;;;;;;;25.04;56.50;100305.94;5250159;28;20608;-71
2022/08/15 10:11:40;;;;;;;9.40;5.65;;;;;;;25.10;56.37;100305.94;5247637;28;20025;-69
2022/08/15 10:14:20;;;;;;;12.57;6.20;;;;;;;25.25;55.94;100315.66;5247674;28;20014;-70
2022/08/15 10:16:56;;;;;;;18.73;6.68;;;;;;;25.22;55.47;100310.72;5244638;28;20041;-69
2022/08/15 10:19:38;;;;;;;16.15;6.82;;;;;;;25.23;55.70;100304.31;5247057;28;20033;-69
2022/08/15 10:22:22;;;;;;;17.17;6.70;;;;;;;25.30;55.43;100302.50;5239263;28;20064;-69
2022/08/15 10:25:18;;;;;;;15.43;6.95;;;;;;;25.31;55.20;100309.47;5243451;28;20029;-71
2022/08/15 10:27:58;;;;;;;12.32;5.70;;;;;;;25.25;55.06;100313.00;5236190;28;20025;-70
2022/08/15 10:30:35;;;;;;;15.73;6.53;;;;;;;25.10;55.41;100297.09;5240453;28;20041;-70
2022/08/15 10:33:31;;;;;;;11.32;5.25;;;;;;;25.29;55.47;100310.72;5240071;28;20098;-69
2022/08/15 10:36:14;;;;;;;17.30;6.15;;;;;;;25.20;55.64;100310.94;5238047;28;20105;-71
2022/08/15 10:38:57;;;;;;;9.65;5.25;;;;;;;25.18;56.07;100304.09;5238934;28;20048;-70
2022/08/15 10:41:34;;;;;;;12.48;5.68;;;;;;;25.12;55.06;100317.28;5230813;28;20083;-67
2022/08/15 10:44:20;;;;;;;17.83;5.32;;;;;;;25.16;55.56;100316.88;5240243;28;20049;-69
2022/08/15 10:47:04;;;;;;;17.58;5.28;;;;;;;25.11;55.25;100315.66;5236380;28;20068;-71
2022/08/15 10:50:04;;;;;;;19.73;5.45;;;;;;;25.20;54.95;100323.50;5236992;28;20110;-70
2022/08/15 10:52:45;;;;;;;11.18;4.93;;;;;;;25.10;55.56;100327.38;5237804;28;20021;-69
2022/08/15 10:55:26;;;;;;;10.38;5.50;;;;;;;25.05;55.75;100327.16;5242188;28;20060;-71
2022/08/15 10:58:14;;;;;;;9.18;4.88;;;;;;;25.03;55.77;100317.69;5233168;28;20024;-71
2022/08/15 11:00:57;;;;;;;12.38;5.97;;;;;;;25.12;55.61;100322.66;5239081;28;20560;-70
2022/08/15 11:03:39;;;;;;;6.63;4.50;;;;;;;25.07;56.23;100329.63;5239479;28;20079;-70
2022/08/15 11:06:14;;;;;;;13.57;4.60;;;;;;;25.04;56.05;100325.50;5238218;28;20059;-70
2022/08/15 11:08:48;;;;;;;11.63;5.53;;;;;;;24.97;57.33;100330.00;5240357;28;20036;-72
2022/08/15 11:11:24;;;;;;;10.68;5.70;;;;;;;24.92;57.33;100316.41;5238659;28;20037;-72
2022/08/15 11:13:58;;;;;;;8.40;5.30;;;;;;;24.97;56.79;100319.31;5238068;28;20021;-71
2022/08/15 11:16:35;;;;;;;11.40;5.65;;;;;;;24.97;56.64;100313.94;5239620;28;20125;-70
2022/08/15 11:19:20;;;;;;;13.65;5.45;;;;;;;24.83;56.59;100308.53;5239030;28;20033;-69
2022/08/15 11:21:58;;;;;;;9.30;5.25;;;;;;;24.88;55.59;100314.09;5239028;28;20060;-71
2022/08/15 11:24:39;;;;;;;7.88;5.05;;;;;;;24.94;55.51;100331.25;5232057;28;20055;-68
2022/08/15 11:27:19;;;;;;;9.48;5.15;;;;;;;24.92;56.05;100316.41;5235055;28;20017;-69
2022/08/15 11:29:53;;;;;;;11.13;5.78;;;;;;;24.93;55.46;100315.34;5239891;28;20374;-71
2022/08/15 11:32:31;;;;;;;9.73;4.68;;;;;;;24.98;55.52;100318.25;5249780;28;20025;-67
2022/08/15 11:35:28;;;;;;;11.90;4.90;;;;;;;25.13;55.36;100318.91;5249659;28;20032;-67
2022/08/15 11:38:00;;;;;;;13.73;4.75;;;;;;;25.16;56.71;100317.72;5235429;28;20060;-67
2022/08/15 11:40:40;;;;;;;7.80;4.45;;;;;;;25.31;56.51;100309.47;5249273;28;20029;-67
2022/08/15 11:43:17;;;;;;;8.20;4.18;;;;;;;25.45;55.22;100325.63;5250248;28;20029;-67
2022/08/15 11:45:52;;;;;;;14.55;4.93;;;;;;;25.37;54.60;100327.44;5259901;28;20030;-67
2022/08/15 11:48:28;;;;;;;32.45;6.90;;;;;;;25.61;54.47;100327.88;5250329;28;20029;-67
2022/08/15 11:51:22;;;;;;;13.10;5.80;;;;;;;25.81;54.52;100329.78;5250854;28;20032;-67
2022/08/15 11:54:23;;;;;;;7.25;4.40;;;;;;;25.89;54.36;100333.25;5249713;28;20029;-69
2022/08/15 11:57:04;;;;;;;9.57;5.50;;;;;;;25.94;53.84;100328.09;5248155;28;20028;-70
2022/08/15 11:59:39;;;;;;;8.48;5.00;;;;;;;25.90;53.26;100329.56;5249731;28;20767;-71
2022/08/15 12:02:19;;;;;;;9.80;5.00;;;;;;;25.96;53.38;100336.78;5250407;28;20029;-71
2022/08/15 12:04:51;;;;;;;9.57;4.85;;;;;;;25.91;52.69;100332.03;5244874;28;20498;-71
2022/08/15 12:07:27;;;;;;;7.28;4.72;;;;;;;26.06;52.88;100336.38;5249960;28;20021;-71
2022/08/15 12:10:04;;;;;;;14.65;5.55;;;;;;;25.90;53.16;100340.28;5253064;28;20057;-70
2022/08/15 12:12:38;;;;;;;9.27;4.35;;;;;;;26.07;53.30;100336.16;5238712;28;20032;-71
2022/08/15 12:15:18;;;;;;;14.20;5.05;;;;;;;26.13;52.46;100341.72;5242005;28;20375;-71